RZP weather

Cesar Lim Rodriguez Airport
Taytay Airport, Sandoval Airport, Palawan Province, Philippines

Public forecast

Using degrees Celsius for public forecast. Weather courtesy of forecast.io.

Closest aviation weather report (METAR) to Cesar Lim Rodriguez Airport

Closest report is Puerto Princesa Airport, 78.3 nm (145.1 km) SW. Retrieved 2020/05/27 22:00 UTC (30 minutes ago):

RPVP 272200Z 27004KT 9999 FEW019 26/24 Q1011 RMK A2985

Closest aviation forecast (TAF) to Cesar Lim Rodriguez Airport

Closest forecast is Puerto Princesa Airport, 78.3 nm (145.1 km) SW. Retrieved 2020/05/27 18:06 UTC (4 hours ago):

TAF RPVP 271700Z 2718/2818 14006KT 9999 FEW019 TEMPO 2718/2724 27004KT FEW017CB BKN080